createdAt,value
2023-01-12T00:02:12.812Z,96015.59
2023-01-12T00:04:40.508Z,96011.63
2023-01-12T00:07:09.890Z,96012.59
2023-01-12T00:09:38.150Z,96011.63
2023-01-12T00:12:08.470Z,96004.25
2023-01-12T00:14:37.177Z,96003.94
2023-01-12T00:17:05.707Z,96004.75
2023-01-12T00:19:36.879Z,96003.34
2023-01-12T00:22:09.615Z,95998.00
2023-01-12T00:24:39.754Z,95990.81
2023-01-12T00:27:10.177Z,95996.94
2023-01-12T00:29:38.924Z,96003.00
2023-01-12T00:32:08.967Z,96009.81
2023-01-12T00:34:37.991Z,96006.66
2023-01-12T00:37:07.526Z,95997.41
2023-01-12T00:39:40.375Z,95985.41
2023-01-12T00:42:26.677Z,95985.41
2023-01-12T00:45:11.985Z,95982.56
2023-01-12T00:47:39.935Z,95980.16
2023-01-12T00:50:10.047Z,95980.97
2023-01-12T00:52:38.071Z,95987.13
2023-01-12T00:55:06.333Z,95994.94
2023-01-12T00:57:34.107Z,95993.56
2023-01-12T01:00:01.970Z,96000.16
2023-01-12T01:02:31.291Z,95995.91
2023-01-12T01:04:59.247Z,95988.88
2023-01-12T01:07:28.523Z,95988.81
2023-01-12T01:09:56.465Z,95990.78
2023-01-12T01:12:25.055Z,95987.19
2023-01-12T01:14:53.425Z,95992.09
2023-01-12T01:17:22.048Z,95992.69
2023-01-12T01:19:49.690Z,96002.84
2023-01-12T01:22:17.460Z,95995.97
2023-01-12T01:24:46.486Z,95992.34
2023-01-12T01:27:14.260Z,95989.31
2023-01-12T01:29:42.616Z,95984.81
2023-01-12T01:32:10.555Z,95979.69
2023-01-12T01:34:39.528Z,95980.88
2023-01-12T01:37:07.281Z,95985.34
2023-01-12T01:39:35.434Z,95988.41
2023-01-12T01:42:04.630Z,95988.38
2023-01-12T01:44:51.756Z,95985.22
2023-01-12T01:47:28.004Z,95982.88
2023-01-12T01:50:00.819Z,95990.88
2023-01-12T01:52:34.415Z,95985.22
2023-01-12T01:55:07.925Z,95992.38
2023-01-12T01:57:42.326Z,95980.41
2023-01-12T02:00:12.902Z,95987.75
2023-01-12T02:02:42.976Z,95982.94
2023-01-12T02:05:13.628Z,95985.22
2023-01-12T02:07:42.034Z,95981.91
2023-01-12T02:10:11.215Z,95975.06
2023-01-12T02:12:57.843Z,95969.41
2023-01-12T02:15:46.860Z,95974.16
2023-01-12T02:18:24.235Z,95975.31
2023-01-12T02:21:18.545Z,95971.03
2023-01-12T02:24:20.511Z,95964.69
2023-01-12T02:27:26.073Z,95958.47
2023-01-12T02:30:25.986Z,95967.22
2023-01-12T02:33:08.832Z,95966.19
2023-01-12T02:35:45.150Z,95971.44
2023-01-12T02:38:23.547Z,95975.03
2023-01-12T02:40:59.595Z,95983.41
2023-01-12T02:43:29.852Z,95982.31
2023-01-12T02:46:02.664Z,95972.78
2023-01-12T02:48:37.686Z,95967.56
2023-01-12T02:51:10.899Z,95960.50
2023-01-12T02:53:44.775Z,95962.63
2023-01-12T02:56:16.411Z,95966.31
2023-01-12T02:58:50.243Z,95961.78
2023-01-12T03:01:20.544Z,95965.31
2023-01-12T03:03:52.164Z,95956.09
2023-01-12T03:06:19.920Z,95957.97
2023-01-12T03:08:50.535Z,95959.00
2023-01-12T03:11:20.127Z,95975.84
2023-01-12T03:13:51.368Z,95955.44
2023-01-12T03:16:22.123Z,95956.53
2023-01-12T03:18:57.051Z,95954.78
2023-01-12T03:21:30.995Z,95948.81
2023-01-12T03:24:05.204Z,95941.69
2023-01-12T03:26:36.452Z,95944.25
2023-01-12T03:29:09.489Z,95946.06
2023-01-12T03:31:38.589Z,95935.31
2023-01-12T03:34:09.300Z,95935.31
2023-01-12T03:36:46.074Z,95940.31
2023-01-12T03:39:23.146Z,95943.31
2023-01-12T03:41:57.798Z,95939.72
2023-01-12T03:44:36.256Z,95934.75
2023-01-12T03:47:11.390Z,95930.06
2023-01-12T03:49:45.529Z,95932.75
2023-01-12T03:52:13.908Z,95931.03
2023-01-12T03:54:43.754Z,95928.38
2023-01-12T03:57:14.083Z,95920.91
2023-01-12T03:59:42.971Z,95922.78
2023-01-12T04:02:10.933Z,95918.78
2023-01-12T04:04:39.265Z,95908.25
2023-01-12T04:07:08.295Z,95908.69
2023-01-12T04:09:37.726Z,95902.63
2023-01-12T04:12:10.602Z,95901.31
2023-01-12T04:14:39.470Z,95889.16
2023-01-12T04:17:07.573Z,95897.59
2023-01-12T04:19:35.588Z,95906.94
2023-01-12T04:22:21.019Z,95905.59
2023-01-12T04:24:50.487Z,95905.19
2023-01-12T04:27:18.925Z,95903.78
2023-01-12T04:30:09.456Z,95904.53
2023-01-12T04:32:40.144Z,95911.31
2023-01-12T04:35:08.723Z,95908.63
2023-01-12T04:37:36.441Z,95912.63
2023-01-12T04:40:07.380Z,95902.28
2023-01-12T04:42:52.621Z,95915.41
2023-01-12T04:45:20.627Z,95914.75
2023-01-12T04:47:51.178Z,95910.16
2023-01-12T04:50:19.273Z,95900.06
2023-01-12T04:52:46.907Z,95902.13
2023-01-12T04:55:16.115Z,95900.69
2023-01-12T04:57:43.768Z,95899.81
2023-01-12T05:00:12.636Z,95905.19
2023-01-12T05:02:40.278Z,95906.94
2023-01-12T05:05:09.955Z,95900.34
2023-01-12T05:07:37.674Z,95899.28
2023-01-12T05:10:23.198Z,95892.19
2023-01-12T05:12:52.193Z,95884.63
2023-01-12T05:15:20.328Z,95890.28
2023-01-12T05:17:47.951Z,95884.03
2023-01-12T05:20:16.421Z,95888.81
2023-01-12T05:22:44.246Z,95876.88
2023-01-12T05:25:11.926Z,95891.22
2023-01-12T05:27:39.564Z,95887.88
2023-01-12T05:30:10.592Z,95880.97
2023-01-12T05:32:39.060Z,95882.03
2023-01-12T05:35:07.917Z,95882.25
2023-01-12T05:37:37.113Z,95874.91
2023-01-12T05:40:05.527Z,95883.75
2023-01-12T05:42:50.774Z,95888.44
2023-01-12T05:45:19.879Z,95883.56
2023-01-12T05:47:48.000Z,95887.50
2023-01-12T05:50:15.879Z,95882.34
2023-01-12T05:53:04.228Z,95879.75
2023-01-12T05:55:31.894Z,95877.97
2023-01-12T05:58:00.857Z,95881.69
2023-01-12T06:00:30.266Z,95890.19
2023-01-12T06:02:58.451Z,95886.44
2023-01-12T06:05:26.097Z,95894.22
2023-01-12T06:07:54.211Z,95891.53
2023-01-12T06:10:21.881Z,95896.19
2023-01-12T06:13:14.563Z,95908.06
2023-01-12T06:15:43.761Z,95904.28
2023-01-12T06:18:11.797Z,95917.47
2023-01-12T06:20:39.475Z,95916.72
2023-01-12T06:23:07.428Z,95922.03
2023-01-12T06:25:35.068Z,95916.88
2023-01-12T06:28:05.987Z,95914.19
2023-01-12T06:30:33.671Z,95915.31
2023-01-12T06:33:04.625Z,95907.06
2023-01-12T06:35:32.266Z,95912.38
2023-01-12T06:38:00.809Z,95911.81
2023-01-12T06:40:28.451Z,95912.94
2023-01-12T06:42:56.916Z,95911.59
2023-01-12T06:45:24.548Z,95912.06
2023-01-12T06:47:52.494Z,95920.91
2023-01-12T06:50:21.528Z,95912.38
2023-01-12T06:52:50.299Z,95913.53
2023-01-12T06:55:18.051Z,95918.19
2023-01-12T06:57:46.052Z,95910.75
2023-01-12T07:00:15.078Z,95902.09
2023-01-12T07:02:43.155Z,95899.78
2023-01-12T07:05:11.148Z,95905.03
2023-01-12T07:07:40.743Z,95902.28
2023-01-12T07:10:09.383Z,95897.16
2023-01-12T07:12:38.062Z,95892.38
2023-01-12T07:15:06.951Z,95896.25
2023-01-12T07:17:34.756Z,95890.28
2023-01-12T07:20:02.420Z,95883.63
2023-01-12T07:22:30.535Z,95887.00
2023-01-12T07:24:59.555Z,95872.56
2023-01-12T07:27:27.648Z,95868.94
2023-01-12T07:29:55.825Z,95870.94
2023-01-12T07:32:27.113Z,95855.50
2023-01-12T07:34:54.740Z,95864.06
2023-01-12T07:37:22.785Z,95859.03
2023-01-12T07:39:50.449Z,95866.63
2023-01-12T07:42:25.727Z,95868.53
2023-01-12T07:44:53.780Z,95868.25
2023-01-12T07:47:21.636Z,95866.38
2023-01-12T07:49:49.793Z,95863.50
2023-01-12T07:52:17.696Z,95864.47
2023-01-12T07:54:46.494Z,95858.72
2023-01-12T07:57:14.641Z,95866.63
2023-01-12T07:59:43.992Z,95860.94
2023-01-12T08:02:16.342Z,95869.41
2023-01-12T08:04:44.748Z,95853.31
2023-01-12T08:07:13.239Z,95849.50
2023-01-12T08:09:41.232Z,95842.84
2023-01-12T08:12:08.952Z,95839.63
2023-01-12T08:14:39.328Z,95848.31
2023-01-12T08:17:15.699Z,95836.75
2023-01-12T08:19:49.070Z,95834.13
2023-01-12T08:22:23.444Z,95832.41
2023-01-12T08:24:55.306Z,95843.38
2023-01-12T08:27:27.461Z,95846.81
2023-01-12T08:29:58.514Z,95845.38
2023-01-12T08:32:29.460Z,95857.09
2023-01-12T08:35:02.154Z,95852.16
2023-01-12T08:37:32.488Z,95846.47
2023-01-12T08:40:00.988Z,95857.31
2023-01-12T08:42:31.533Z,95854.34
2023-01-12T08:44:59.562Z,95859.28
2023-01-12T08:47:30.557Z,95844.66
2023-01-12T08:50:00.306Z,95841.88
2023-01-12T08:52:29.403Z,95842.06
2023-01-12T08:54:57.450Z,95834.66
2023-01-12T08:57:25.103Z,95836.00
2023-01-12T08:59:52.817Z,95823.84
2023-01-12T09:02:20.499Z,95822.84
2023-01-12T09:04:52.682Z,95828.72
2023-01-12T09:07:23.311Z,95818.56
2023-01-12T09:09:51.372Z,95812.00
2023-01-12T09:12:19.200Z,95822.34
2023-01-12T09:14:46.856Z,95828.09
2023-01-12T09:17:14.558Z,95815.59
2023-01-12T09:19:44.133Z,95829.25
2023-01-12T09:22:13.146Z,95826.63
2023-01-12T09:24:41.791Z,95825.13
2023-01-12T09:27:11.401Z,95820.84
2023-01-12T09:29:39.362Z,95827.09
2023-01-12T09:32:07.005Z,95821.22
2023-01-12T09:34:35.373Z,95818.88
2023-01-12T09:37:03.101Z,95810.34
2023-01-12T09:39:32.360Z,95816.25
2023-01-12T09:42:18.045Z,95801.50
2023-01-12T09:45:07.320Z,95816.78
2023-01-12T09:47:39.079Z,95825.97
2023-01-12T09:50:10.791Z,95817.41
2023-01-12T09:52:42.506Z,95821.22
2023-01-12T09:55:15.821Z,95829.41
2023-01-12T09:58:07.491Z,95806.56
2023-01-12T10:00:35.522Z,95809.03
2023-01-12T10:03:12.816Z,95806.75
2023-01-12T10:05:46.427Z,95817.44
2023-01-12T10:08:18.807Z,95810.00
2023-01-12T10:11:01.080Z,95811.00
2023-01-12T10:13:46.543Z,95827.44
2023-01-12T10:16:22.363Z,95802.66
2023-01-12T10:18:54.800Z,95799.34
2023-01-12T10:21:24.667Z,95786.69
2023-01-12T10:23:54.833Z,95799.84
2023-01-12T10:26:25.844Z,95798.69
2023-01-12T10:28:56.237Z,95785.38
2023-01-12T10:31:26.113Z,95793.28
2023-01-12T10:34:05.004Z,95788.19
2023-01-12T10:36:35.815Z,95793.94
2023-01-12T10:39:05.563Z,95789.34
2023-01-12T10:41:37.726Z,95795.25
2023-01-12T10:44:16.580Z,95790.00
2023-01-12T10:46:44.984Z,95772.69
2023-01-12T10:49:21.206Z,95793.56
2023-01-12T10:51:53.094Z,95794.53
2023-01-12T10:54:24.445Z,95782.38
2023-01-12T10:56:59.780Z,95783.63
2023-01-12T10:59:31.432Z,95796.84
2023-01-12T11:02:15.725Z,95790.44
2023-01-12T11:04:45.979Z,95803.78
2023-01-12T11:07:19.860Z,95796.25
2023-01-12T11:09:47.560Z,95795.25
2023-01-12T11:12:27.554Z,95792.28
2023-01-12T11:15:01.273Z,95779.38
2023-01-12T11:17:43.678Z,95764.97
2023-01-12T11:20:21.514Z,95766.31
2023-01-12T11:22:52.625Z,95772.88
2023-01-12T11:25:24.558Z,95761.38
2023-01-12T11:27:57.879Z,95761.38
2023-01-12T11:30:37.231Z,95754.06
2023-01-12T11:33:11.951Z,95751.34
2023-01-12T11:35:46.557Z,95763.53
2023-01-12T11:38:19.664Z,95732.72
2023-01-12T11:40:49.038Z,95734.84
2023-01-12T11:43:50.204Z,95736.56
2023-01-12T11:46:26.911Z,95737.84
2023-01-12T11:49:13.640Z,95738.50
2023-01-12T11:51:42.972Z,95744.53
2023-01-12T11:54:15.167Z,95751.84
2023-01-12T11:57:04.651Z,95746.25
2023-01-12T11:59:42.537Z,95733.75
2023-01-12T12:02:24.327Z,95738.63
2023-01-12T12:05:03.892Z,95722.59
2023-01-12T12:07:50.511Z,95738.03
2023-01-12T12:10:25.322Z,95711.50
2023-01-12T12:13:17.816Z,95714.00
2023-01-12T12:15:55.923Z,95706.03
2023-01-12T12:18:39.949Z,95705.19
2023-01-12T12:21:18.085Z,95722.34
2023-01-12T12:23:56.949Z,95706.44
2023-01-12T12:26:30.842Z,95706.41
2023-01-12T12:29:17.209Z,95693.84
2023-01-12T12:32:02.781Z,95706.22
2023-01-12T12:34:59.939Z,95695.94
2023-01-12T12:37:44.323Z,95708.53
2023-01-12T12:40:24.422Z,95713.50
2023-01-12T12:43:18.640Z,95706.38
2023-01-12T12:45:52.742Z,95715.59
2023-01-12T12:48:27.147Z,95715.16
2023-01-12T12:51:04.367Z,95710.03
2023-01-12T12:53:35.839Z,95698.94
2023-01-12T12:56:06.724Z,95697.00
2023-01-12T12:58:43.842Z,95707.78
2023-01-12T13:01:58.533Z,95703.75
2023-01-12T13:05:04.992Z,95693.19
2023-01-12T13:07:38.407Z,95682.16
2023-01-12T13:10:31.334Z,95690.34
2023-01-12T13:13:24.200Z,95688.13
2023-01-12T13:16:12.411Z,95686.47
2023-01-12T13:18:44.782Z,95695.78
2023-01-12T13:21:33.610Z,95706.22
2023-01-12T13:24:27.401Z,95688.50
2023-01-12T13:26:57.735Z,95696.00
2023-01-12T13:29:45.577Z,95692.63
2023-01-12T13:32:36.640Z,95688.50
2023-01-12T13:35:05.034Z,95684.97
2023-01-12T13:37:49.304Z,95699.06
2023-01-12T13:40:20.979Z,95690.38
2023-01-12T13:43:08.433Z,95690.03
2023-01-12T13:45:37.870Z,95683.13
2023-01-12T13:48:10.503Z,95683.84
2023-01-12T13:50:39.307Z,95684.44
2023-01-12T13:53:23.668Z,95691.75
2023-01-12T13:56:00.243Z,95682.50
2023-01-12T13:58:30.180Z,95681.91
2023-01-12T14:01:00.190Z,95678.59
2023-01-12T14:03:51.519Z,95683.56
2023-01-12T14:06:30.220Z,95688.38
2023-01-12T14:09:14.391Z,95687.19
2023-01-12T14:12:07.711Z,95692.31
2023-01-12T14:15:26.252Z,95687.66
2023-01-12T14:18:04.068Z,95680.13
2023-01-12T14:20:32.357Z,95673.50
2023-01-12T14:23:19.181Z,95671.28
2023-01-12T14:26:03.678Z,95665.09
2023-01-12T14:28:31.851Z,95663.84
2023-01-12T14:31:00.004Z,95663.53
2023-01-12T14:33:30.516Z,95672.44
2023-01-12T14:36:03.971Z,95657.53
2023-01-12T14:38:34.500Z,95665.56
2023-01-12T14:41:06.803Z,95659.00
2023-01-12T14:43:54.273Z,95665.94
2023-01-12T14:46:28.177Z,95661.47
2023-01-12T14:49:01.651Z,95664.59
2023-01-12T14:51:33.942Z,95668.59
2023-01-12T14:54:17.603Z,95665.59
2023-01-12T14:56:56.259Z,95671.16
2023-01-12T14:59:29.055Z,95659.22
2023-01-12T15:02:21.922Z,95669.00
2023-01-12T15:04:57.645Z,95655.25
2023-01-12T15:07:30.204Z,95664.31
2023-01-12T15:10:00.239Z,95655.69
2023-01-12T15:12:47.482Z,95648.22
2023-01-12T15:15:20.874Z,95639.00
2023-01-12T15:18:06.886Z,95642.69
2023-01-12T15:20:54.908Z,95646.97
2023-01-12T15:23:47.940Z,95657.88
2023-01-12T15:26:15.612Z,95673.13
2023-01-12T15:28:46.096Z,95668.03
2023-01-12T15:31:19.192Z,95648.06
2023-01-12T15:33:47.091Z,95650.19
2023-01-12T15:36:15.300Z,95658.06
2023-01-12T15:38:43.065Z,95658.97
2023-01-12T15:41:17.694Z,95662.91
2023-01-12T15:43:47.047Z,95668.03
2023-01-12T15:46:20.550Z,95657.78
2023-01-12T15:48:48.401Z,95657.03
2023-01-12T15:51:16.939Z,95658.53
2023-01-12T15:53:44.720Z,95662.44
2023-01-12T15:56:16.435Z,95658.38
2023-01-12T15:58:44.096Z,95665.78
2023-01-12T16:01:17.890Z,95659.81
2023-01-12T16:04:07.239Z,95655.53
2023-01-12T16:06:34.892Z,95655.53
2023-01-12T16:09:02.560Z,95653.56
2023-01-12T16:11:30.555Z,95647.34
2023-01-12T16:13:58.465Z,95650.63
2023-01-12T16:16:29.080Z,95650.50
2023-01-12T16:18:59.787Z,95647.38
2023-01-12T16:21:29.125Z,95638.69
2023-01-12T16:23:57.850Z,95640.66
2023-01-12T16:26:26.056Z,95640.34
2023-01-12T16:28:53.818Z,95634.28
2023-01-12T16:31:22.338Z,95632.63
2023-01-12T16:33:51.459Z,95655.31
2023-01-12T16:36:19.576Z,95643.81
2023-01-12T16:38:47.396Z,95646.59
2023-01-12T16:41:19.082Z,95632.25
2023-01-12T16:43:47.572Z,95635.88
2023-01-12T16:46:16.421Z,95633.44
2023-01-12T16:48:44.393Z,95638.88
2023-01-12T16:51:15.085Z,95635.94
2023-01-12T16:53:43.506Z,95626.53
2023-01-12T16:56:13.122Z,95623.41
2023-01-12T16:58:41.936Z,95627.88
2023-01-12T17:01:12.496Z,95617.50
2023-01-12T17:03:41.552Z,95627.88
2023-01-12T17:06:12.517Z,95630.03
2023-01-12T17:08:42.447Z,95630.00
2023-01-12T17:11:12.768Z,95632.38
2023-01-12T17:13:41.129Z,95634.31
2023-01-12T17:16:10.428Z,95623.44
2023-01-12T17:18:38.947Z,95626.78
2023-01-12T17:21:12.890Z,95629.75
2023-01-12T17:23:43.503Z,95631.38
2023-01-12T17:26:13.963Z,95626.78
2023-01-12T17:28:42.112Z,95626.25
2023-01-12T17:31:12.461Z,95618.91
2023-01-12T17:33:40.609Z,95619.06
2023-01-12T17:36:11.976Z,95621.19
2023-01-12T17:38:40.554Z,95611.81
2023-01-12T17:41:30.785Z,95619.53
2023-01-12T17:43:57.645Z,95610.03
2023-01-12T17:46:25.626Z,95612.47
2023-01-12T17:48:53.456Z,95617.91
2023-01-12T17:51:21.672Z,95610.97
2023-01-12T17:53:49.703Z,95605.41
2023-01-12T17:56:19.058Z,95602.13
2023-01-12T17:58:50.746Z,95610.19
2023-01-12T18:01:19.175Z,95607.03
2023-01-12T18:03:47.354Z,95600.84
2023-01-12T18:06:25.751Z,95599.19
2023-01-12T18:08:56.252Z,95604.94
2023-01-12T18:11:25.952Z,95586.88
2023-01-12T18:13:53.913Z,95596.22
2023-01-12T18:16:22.742Z,95599.06
2023-01-12T18:18:50.987Z,95597.25
2023-01-12T18:21:21.610Z,95590.13
2023-01-12T18:23:50.200Z,95591.00
2023-01-12T18:26:21.151Z,95580.13
2023-01-12T18:28:50.821Z,95583.75
2023-01-12T18:31:21.157Z,95590.34
2023-01-12T18:33:49.226Z,95580.50
2023-01-12T18:36:22.080Z,95576.88
2023-01-12T18:38:50.773Z,95566.72
2023-01-12T18:41:49.394Z,95564.06
2023-01-12T18:44:18.438Z,95568.50
2023-01-12T18:47:04.105Z,95560.63
2023-01-12T18:49:33.428Z,95556.53
2023-01-12T18:52:19.607Z,95554.88
2023-01-12T18:54:48.419Z,95547.31
2023-01-12T18:57:18.342Z,95549.59
2023-01-12T18:59:51.321Z,95555.22
2023-01-12T19:02:20.728Z,95546.19
2023-01-12T19:05:13.674Z,95534.09
2023-01-12T19:08:02.311Z,95538.84
2023-01-12T19:10:30.080Z,95528.97
2023-01-12T19:13:12.883Z,95530.78
2023-01-12T19:16:00.120Z,95527.34
2023-01-12T19:18:29.149Z,95537.50
2023-01-12T19:21:22.250Z,95530.44
2023-01-12T19:24:07.566Z,95530.97
2023-01-12T19:26:52.723Z,95522.78
2023-01-12T19:29:20.387Z,95523.09
2023-01-12T19:31:49.480Z,95511.63
2023-01-12T19:34:17.315Z,95512.25
2023-01-12T19:36:44.933Z,95508.97
2023-01-12T19:39:13.454Z,95503.41
2023-01-12T19:41:58.695Z,95507.59
2023-01-12T19:44:26.658Z,95503.41
2023-01-12T19:46:55.676Z,95494.91
2023-01-12T19:49:23.683Z,95492.63
2023-01-12T19:51:51.323Z,95504.28
2023-01-12T19:54:19.288Z,95494.09
2023-01-12T19:56:47.578Z,95487.03
2023-01-12T19:59:15.855Z,95493.28
2023-01-12T20:01:43.576Z,95496.88
2023-01-12T20:04:12.952Z,95478.03
2023-01-12T20:06:40.611Z,95483.41
2023-01-12T20:09:08.807Z,95479.78
2023-01-12T20:11:36.752Z,95471.25
2023-01-12T20:14:05.281Z,95479.41
2023-01-12T20:16:33.610Z,95478.75
2023-01-12T20:19:01.983Z,95479.72
2023-01-12T20:21:31.002Z,95472.88
2023-01-12T20:23:59.356Z,95475.53
2023-01-12T20:26:27.058Z,95475.88
2023-01-12T20:28:55.079Z,95473.38
2023-01-12T20:31:23.324Z,95462.53
2023-01-12T20:33:51.686Z,95476.28
2023-01-12T20:36:19.345Z,95478.28
2023-01-12T20:38:51.139Z,95481.00
2023-01-12T20:41:19.736Z,95475.41
2023-01-12T20:43:48.062Z,95480.31
2023-01-12T20:46:16.084Z,95480.91
2023-01-12T20:48:45.707Z,95480.31
2023-01-12T20:51:15.375Z,95467.53
2023-01-12T20:53:44.470Z,95490.19
2023-01-12T20:56:13.647Z,95478.34
2023-01-12T20:58:41.464Z,95479.41
2023-01-12T21:01:10.388Z,95482.47
2023-01-12T21:03:39.147Z,95469.97
2023-01-12T21:06:09.897Z,95491.72
2023-01-12T21:08:39.234Z,95470.56
2023-01-12T21:11:07.402Z,95468.22
2023-01-12T21:13:36.930Z,95474.03
2023-01-12T21:16:07.172Z,95480.91
2023-01-12T21:18:35.588Z,95480.91
2023-01-12T21:21:04.809Z,95476.06
2023-01-12T21:23:32.798Z,95475.22
2023-01-12T21:26:00.746Z,95471.28
2023-01-12T21:28:30.421Z,95467.28
2023-01-12T21:31:02.980Z,95453.28
2023-01-12T21:33:31.185Z,95478.09
2023-01-12T21:36:00.452Z,95468.19
2023-01-12T21:38:30.328Z,95471.41
2023-01-12T21:41:02.397Z,95474.81
2023-01-12T21:43:29.418Z,95479.88
2023-01-12T21:45:58.655Z,95461.34
2023-01-12T21:48:27.643Z,95471.72
2023-01-12T21:51:02.186Z,95457.59
2023-01-12T21:53:29.802Z,95461.81
2023-01-12T21:56:00.460Z,95468.50
2023-01-12T21:58:30.237Z,95456.91
2023-01-12T22:01:00.082Z,95466.72
2023-01-12T22:03:29.900Z,95456.63
2023-01-12T22:06:05.450Z,95463.03
2023-01-12T22:08:34.718Z,95462.25
2023-01-12T22:11:07.414Z,95456.56
2023-01-12T22:13:35.295Z,95452.63
2023-01-12T22:16:04.104Z,95443.94
2023-01-12T22:18:34.198Z,95445.69
2023-01-12T22:21:03.178Z,95451.16
2023-01-12T22:23:31.183Z,95440.38
2023-01-12T22:26:02.119Z,95433.53
2023-01-12T22:28:30.156Z,95448.94
2023-01-12T22:30:58.162Z,95446.13
2023-01-12T22:33:25.947Z,95460.41
2023-01-12T22:35:56.153Z,95446.22
2023-01-12T22:38:23.823Z,95456.50
2023-01-12T22:40:51.498Z,95455.53
2023-01-12T22:43:29.331Z,95455.59
2023-01-12T22:45:59.098Z,95464.63
2023-01-12T22:48:27.907Z,95463.97
2023-01-12T22:51:01.944Z,95463.22
2023-01-12T22:53:29.584Z,95462.16
2023-01-12T22:56:00.343Z,95460.91
2023-01-12T22:58:28.152Z,95466.72
2023-01-12T23:00:56.452Z,95464.72
2023-01-12T23:03:24.271Z,95468.00
2023-01-12T23:05:56.419Z,95459.59
2023-01-12T23:08:26.152Z,95463.03
2023-01-12T23:11:04.018Z,95460.50
2023-01-12T23:13:31.845Z,95458.88
2023-01-12T23:16:04.715Z,95459.47
2023-01-12T23:18:34.371Z,95457.00
2023-01-12T23:21:11.319Z,95450.72
2023-01-12T23:23:41.600Z,95445.44
2023-01-12T23:26:11.919Z,95447.00
2023-01-12T23:28:43.825Z,95452.88
2023-01-12T23:31:14.472Z,95444.19
2023-01-12T23:33:43.699Z,95454.88
2023-01-12T23:36:17.475Z,95438.75
2023-01-12T23:38:47.111Z,95437.66
2023-01-12T23:41:16.668Z,95440.78
2023-01-12T23:43:45.073Z,95439.81
2023-01-12T23:46:13.549Z,95439.97
2023-01-12T23:48:41.739Z,95443.25
2023-01-12T23:51:10.483Z,95445.94
2023-01-12T23:53:38.337Z,95436.16
2023-01-12T23:56:09.997Z,95441.56
2023-01-12T23:58:38.319Z,95446.84
